Time;durP1;ratioP1;P1;durP2;ratioP2;P2;SDS_P1;SDS_P2;PMS_P1;PMS_P2;Temp;Humidity;BMP_temperature;BMP_pressure;BME280_temperature;BME280_humidity;BME280_pressure;Samples;Min_cycle;Max_cycle;Signal;HPM_P1;HPM_P2
2023/01/21 00:01:43;;;;;;;322.03;144.27;;;;;;;;;;5045176;28;20231;-51
2023/01/21 00:04:09;;;;;;;276.17;124.80;;;;;;;;;;5045482;28;20219;-51
2023/01/21 00:06:35;;;;;;;326.20;139.57;;;;;;;;;;5044968;28;20216;-51
2023/01/21 00:09:02;;;;;;;310.43;134.20;;;;;;;;;;5044412;28;20589;-50
2023/01/21 00:11:28;;;;;;;339.97;146.00;;;;;;;;;;5044168;28;20534;-51
2023/01/21 00:13:54;;;;;;;280.40;122.27;;;;;;;;;;5043554;28;20203;-51
2023/01/21 00:16:20;;;;;;;263.83;116.60;;;;;;;;;;5044245;28;20223;-51
2023/01/21 00:18:47;;;;;;;264.50;121.80;;;;;;;;;;5044903;28;20222;-50
2023/01/21 00:21:13;;;;;;;264.33;118.67;;;;;;;;;;5043962;28;20223;-51
2023/01/21 00:23:40;;;;;;;345.33;146.37;;;;;;;;;;5044944;28;20427;-51
2023/01/21 00:26:07;;;;;;;274.50;124.40;;;;;;;;;;5043225;28;20321;-51
2023/01/21 00:28:34;;;;;;;362.43;151.40;;;;;;;;;;5044865;28;20298;-51
2023/01/21 00:31:01;;;;;;;238.13;110.03;;;;;;;;;;5043900;28;20215;-51
2023/01/21 00:33:28;;;;;;;333.63;143.07;;;;;;;;;;5043081;28;20211;-50
2023/01/21 00:35:58;;;;;;;271.10;120.67;;;;;;;;;;5042069;28;20277;-51
2023/01/21 00:38:24;;;;;;;366.47;159.80;;;;;;;;;;5044846;28;20672;-50
2023/01/21 00:40:50;;;;;;;216.27;102.80;;;;;;;;;;5043576;28;20601;-50
2023/01/21 00:43:17;;;;;;;291.13;122.03;;;;;;;;;;5044074;28;20294;-50
2023/01/21 00:45:43;;;;;;;329.53;138.33;;;;;;;;;;5042993;28;20273;-51
2023/01/21 00:48:09;;;;;;;235.97;107.67;;;;;;;;;;5043796;28;20219;-50
2023/01/21 00:50:35;;;;;;;322.37;140.27;;;;;;;;;;5042742;28;20179;-51
2023/01/21 00:53:01;;;;;;;303.67;130.50;;;;;;;;;;5044095;28;20183;-51
2023/01/21 00:55:27;;;;;;;274.63;129.00;;;;;;;;;;5035911;28;20272;-53
2023/01/21 00:57:54;;;;;;;282.00;131.53;;;;;;;;;;5038740;28;20633;-52
2023/01/21 01:00:20;;;;;;;294.80;131.77;;;;;;;;;;5034199;28;20211;-53
2023/01/21 01:02:46;;;;;;;356.07;161.70;;;;;;;;;;5037953;28;20637;-54
2023/01/21 01:05:13;;;;;;;281.97;125.43;;;;;;;;;;5039123;28;20203;-55
2023/01/21 01:07:42;;;;;;;323.13;149.97;;;;;;;;;;5035693;28;20724;-54
2023/01/21 01:10:08;;;;;;;287.30;131.50;;;;;;;;;;5041394;28;20203;-53
2023/01/21 01:12:34;;;;;;;300.90;133.03;;;;;;;;;;5034557;28;20226;-53
2023/01/21 01:15:00;;;;;;;273.83;126.03;;;;;;;;;;5038771;28;20211;-53
2023/01/21 01:17:26;;;;;;;247.43;114.17;;;;;;;;;;5037451;28;20497;-54
2023/01/21 01:19:52;;;;;;;362.03;163.33;;;;;;;;;;5037189;28;20560;-54
2023/01/21 01:22:21;;;;;;;242.93;116.77;;;;;;;;;;5036667;28;20215;-54
2023/01/21 01:24:47;;;;;;;338.47;159.00;;;;;;;;;;5033764;28;20288;-53
2023/01/21 01:27:13;;;;;;;270.90;122.47;;;;;;;;;;5040211;28;20234;-53
2023/01/21 01:29:39;;;;;;;349.33;160.13;;;;;;;;;;5033571;28;20184;-54
2023/01/21 01:32:05;;;;;;;335.93;152.40;;;;;;;;;;5032894;28;20179;-53
2023/01/21 01:34:31;;;;;;;325.93;155.57;;;;;;;;;;5030569;28;20220;-53
2023/01/21 01:36:57;;;;;;;290.53;137.60;;;;;;;;;;5029522;28;20214;-54
2023/01/21 01:39:23;;;;;;;277.40;131.63;;;;;;;;;;5035823;28;20278;-53
2023/01/21 01:41:49;;;;;;;331.27;151.17;;;;;;;;;;5038626;28;20232;-54
2023/01/21 01:44:34;;;;;;;321.90;148.03;;;;;;;;;;5038957;28;20798;-53
2023/01/21 01:47:01;;;;;;;331.53;154.87;;;;;;;;;;5033774;28;20898;-53
2023/01/21 01:49:27;;;;;;;265.80;124.83;;;;;;;;;;5032976;28;20528;-53
2023/01/21 01:51:54;;;;;;;305.83;134.77;;;;;;;;;;5039074;28;20222;-54
2023/01/21 01:54:26;;;;;;;301.23;139.07;;;;;;;;;;5038316;28;20222;-53
2023/01/21 01:56:54;;;;;;;314.43;142.63;;;;;;;;;;5035001;28;20223;-53
2023/01/21 01:59:21;;;;;;;264.10;124.37;;;;;;;;;;5034946;28;20261;-53
2023/01/21 02:01:47;;;;;;;344.53;143.17;;;;;;;;;;5032171;28;20227;-54
2023/01/21 02:04:17;;;;;;;285.13;135.73;;;;;;;;;;5034282;28;20215;-54
2023/01/21 02:06:44;;;;;;;333.73;150.67;;;;;;;;;;5039600;28;20238;-53
2023/01/21 02:09:10;;;;;;;355.77;163.60;;;;;;;;;;5035822;28;20207;-53
2023/01/21 02:11:36;;;;;;;371.37;176.07;;;;;;;;;;5034980;28;20670;-53
2023/01/21 02:14:03;;;;;;;285.50;127.53;;;;;;;;;;5034021;28;20196;-53
2023/01/21 02:16:32;;;;;;;263.83;129.30;;;;;;;;;;5033728;28;20224;-53
2023/01/21 02:18:58;;;;;;;367.93;163.80;;;;;;;;;;5030765;28;21523;-53
2023/01/21 02:21:24;;;;;;;259.47;124.03;;;;;;;;;;5031847;28;20661;-53
2023/01/21 02:23:56;;;;;;;335.63;150.60;;;;;;;;;;5040707;28;20653;-53
2023/01/21 02:26:40;;;;;;;288.33;131.13;;;;;;;;;;5037016;28;20187;-54
2023/01/21 02:29:09;;;;;;;283.97;132.47;;;;;;;;;;5042675;28;20574;-53
2023/01/21 02:31:35;;;;;;;311.63;148.20;;;;;;;;;;5036531;28;20258;-54
2023/01/21 02:34:08;;;;;;;308.93;141.57;;;;;;;;;;5032057;28;20230;-53
2023/01/21 02:36:34;;;;;;;282.27;132.43;;;;;;;;;;5041849;28;20219;-54
2023/01/21 02:39:09;;;;;;;382.03;165.33;;;;;;;;;;5034651;28;20291;-53
2023/01/21 02:41:41;;;;;;;281.20;129.90;;;;;;;;;;5035297;28;20202;-53
2023/01/21 02:44:07;;;;;;;369.33;169.93;;;;;;;;;;5032320;28;20271;-53
2023/01/21 02:46:33;;;;;;;350.07;151.63;;;;;;;;;;5032154;28;20212;-54
2023/01/21 02:49:22;;;;;;;321.27;143.73;;;;;;;;;;5038533;28;20304;-53
2023/01/21 02:51:48;;;;;;;308.40;138.90;;;;;;;;;;5035109;28;20215;-53
2023/01/21 02:54:34;;;;;;;331.33;143.60;;;;;;;;;;5042747;28;20227;-53
2023/01/21 02:57:00;;;;;;;271.83;130.10;;;;;;;;;;5026069;28;20219;-54
2023/01/21 02:59:26;;;;;;;377.23;174.90;;;;;;;;;;5036975;28;20184;-53
2023/01/21 03:01:52;;;;;;;289.13;134.63;;;;;;;;;;5042294;28;20349;-54
2023/01/21 03:04:18;;;;;;;340.10;151.27;;;;;;;;;;5039512;28;21450;-53
2023/01/21 03:07:03;;;;;;;257.57;124.87;;;;;;;;;;5042265;28;20219;-53
2023/01/21 03:09:30;;;;;;;285.50;131.30;;;;;;;;;;5032018;28;20220;-53
2023/01/21 03:11:56;;;;;;;306.20;144.40;;;;;;;;;;5036539;28;20371;-53
2023/01/21 03:17:15;;;;;;;313.60;147.90;;;;;;;;;;5031022;28;20275;-53
2023/01/21 03:19:52;;;;;;;349.43;151.27;;;;;;;;;;5038348;28;20323;-53
2023/01/21 03:22:20;;;;;;;307.23;143.20;;;;;;;;;;5035509;28;20290;-53
2023/01/21 03:24:48;;;;;;;254.70;121.87;;;;;;;;;;5033720;28;20223;-53
2023/01/21 03:27:15;;;;;;;325.87;149.07;;;;;;;;;;5032458;28;20230;-53
2023/01/21 03:29:42;;;;;;;362.40;165.37;;;;;;;;;;5040784;28;20180;-53
2023/01/21 03:32:10;;;;;;;370.20;164.20;;;;;;;;;;5036374;28;20216;-53
2023/01/21 03:34:40;;;;;;;365.70;168.07;;;;;;;;;;5037673;28;20300;-53
2023/01/21 03:37:25;;;;;;;296.10;137.27;;;;;;;;;;5030148;28;20573;-53
2023/01/21 03:39:58;;;;;;;389.87;182.30;;;;;;;;;;5033167;28;20622;-53
2023/01/21 03:42:24;;;;;;;337.23;161.20;;;;;;;;;;5031918;28;20688;-54
2023/01/21 03:44:50;;;;;;;349.10;160.03;;;;;;;;;;5029692;28;21032;-53
2023/01/21 03:47:22;;;;;;;271.80;127.10;;;;;;;;;;5036851;28;20487;-54
2023/01/21 03:50:07;;;;;;;342.90;161.50;;;;;;;;;;5027555;28;21076;-53
2023/01/21 03:52:33;;;;;;;296.17;140.47;;;;;;;;;;5029492;28;20496;-53
2023/01/21 03:54:59;;;;;;;331.17;151.63;;;;;;;;;;5032375;28;20283;-53
2023/01/21 03:57:26;;;;;;;289.60;137.40;;;;;;;;;;5033911;28;20216;-53
2023/01/21 03:59:52;;;;;;;264.53;119.70;;;;;;;;;;5040760;28;20207;-54
2023/01/21 04:02:19;;;;;;;299.87;136.87;;;;;;;;;;5033461;28;20215;-53
2023/01/21 04:04:45;;;;;;;312.50;142.33;;;;;;;;;;5035821;28;20219;-53
2023/01/21 04:07:12;;;;;;;333.63;150.93;;;;;;;;;;5030328;28;20575;-53
2023/01/21 04:09:38;;;;;;;344.97;161.63;;;;;;;;;;5036100;28;20207;-53
2023/01/21 04:12:04;;;;;;;354.07;161.27;;;;;;;;;;5034459;28;20367;-53
2023/01/21 04:14:30;;;;;;;283.10;130.47;;;;;;;;;;5040336;28;20199;-53
2023/01/21 04:16:56;;;;;;;333.90;142.40;;;;;;;;;;5042624;28;20190;-54
2023/01/21 04:19:22;;;;;;;324.00;141.57;;;;;;;;;;5039373;28;20219;-53
2023/01/21 04:21:48;;;;;;;365.33;163.00;;;;;;;;;;5038214;28;20219;-53
2023/01/21 04:24:14;;;;;;;285.33;128.70;;;;;;;;;;5044696;28;20215;-54
2023/01/21 04:26:40;;;;;;;330.00;147.13;;;;;;;;;;5037821;28;20175;-53
2023/01/21 04:29:06;;;;;;;338.47;155.53;;;;;;;;;;5038137;28;20457;-53
2023/01/21 04:31:32;;;;;;;267.67;124.73;;;;;;;;;;5038267;28;20471;-54
2023/01/21 04:33:58;;;;;;;374.93;164.57;;;;;;;;;;5038337;28;20364;-53
2023/01/21 04:36:24;;;;;;;280.17;125.13;;;;;;;;;;5035601;28;20354;-54
2023/01/21 04:38:50;;;;;;;292.17;132.97;;;;;;;;;;5034487;28;20270;-54
2023/01/21 04:41:16;;;;;;;278.43;128.40;;;;;;;;;;5046797;28;20211;-54
2023/01/21 04:43:42;;;;;;;345.60;155.70;;;;;;;;;;5036640;28;20215;-53
2023/01/21 04:46:08;;;;;;;340.67;157.27;;;;;;;;;;5035531;28;20280;-54
2023/01/21 04:48:34;;;;;;;308.57;147.20;;;;;;;;;;5038953;28;20238;-53
2023/01/21 04:51:01;;;;;;;361.73;168.70;;;;;;;;;;5034083;28;20392;-54
2023/01/21 04:53:27;;;;;;;264.77;122.30;;;;;;;;;;5041771;28;20203;-54
2023/01/21 04:55:53;;;;;;;292.33;133.53;;;;;;;;;;5036900;28;20257;-53
2023/01/21 04:58:20;;;;;;;300.60;131.63;;;;;;;;;;5042745;28;20634;-53
2023/01/21 05:00:45;;;;;;;254.30;118.63;;;;;;;;;;5035739;28;20292;-54
2023/01/21 05:03:12;;;;;;;322.83;150.20;;;;;;;;;;5041305;28;20215;-53
2023/01/21 05:05:37;;;;;;;257.87;122.33;;;;;;;;;;5031301;28;20179;-53
2023/01/21 05:08:03;;;;;;;349.60;158.47;;;;;;;;;;5039527;28;20722;-52
2023/01/21 05:10:29;;;;;;;294.53;124.37;;;;;;;;;;5041374;28;20591;-53
2023/01/21 05:12:56;;;;;;;334.37;156.13;;;;;;;;;;5043189;28;20312;-53
2023/01/21 05:15:22;;;;;;;368.40;168.10;;;;;;;;;;5030052;28;20928;-53
2023/01/21 05:17:48;;;;;;;330.03;152.17;;;;;;;;;;5035938;28;20353;-53
2023/01/21 05:20:14;;;;;;;286.70;137.67;;;;;;;;;;5036282;28;20203;-54
2023/01/21 05:22:40;;;;;;;287.53;131.00;;;;;;;;;;5034541;28;20247;-53
2023/01/21 05:25:06;;;;;;;349.23;161.53;;;;;;;;;;5031257;28;20332;-53
2023/01/21 05:27:33;;;;;;;308.60;134.63;;;;;;;;;;5043475;28;20226;-54
2023/01/21 05:29:59;;;;;;;360.43;158.37;;;;;;;;;;5039209;28;20240;-54
2023/01/21 05:32:25;;;;;;;276.83;132.63;;;;;;;;;;5039584;28;20205;-52
2023/01/21 05:34:51;;;;;;;272.83;127.57;;;;;;;;;;5034270;28;20710;-53
2023/01/21 05:37:17;;;;;;;310.27;145.47;;;;;;;;;;5035921;28;20223;-53
2023/01/21 05:39:43;;;;;;;371.13;164.80;;;;;;;;;;5039583;28;20420;-53
2023/01/21 05:42:09;;;;;;;360.47;164.87;;;;;;;;;;5032408;28;20227;-54
2023/01/21 05:44:36;;;;;;;340.13;155.23;;;;;;;;;;5038676;28;20200;-54
2023/01/21 05:47:02;;;;;;;368.57;170.97;;;;;;;;;;5030169;28;20183;-53
2023/01/21 05:49:28;;;;;;;289.23;137.27;;;;;;;;;;5033293;28;20247;-53
2023/01/21 05:51:54;;;;;;;368.57;173.43;;;;;;;;;;5035090;28;20223;-53
2023/01/21 05:54:20;;;;;;;303.20;143.67;;;;;;;;;;5034945;28;20249;-54
2023/01/21 05:56:46;;;;;;;271.30;126.50;;;;;;;;;;5042424;28;20234;-53
2023/01/21 05:59:12;;;;;;;353.50;166.13;;;;;;;;;;5036855;28;20180;-53
2023/01/21 06:01:38;;;;;;;354.67;163.20;;;;;;;;;;5031155;28;20231;-53
2023/01/21 06:04:04;;;;;;;371.93;170.23;;;;;;;;;;5040261;28;20223;-53
2023/01/21 06:06:30;;;;;;;331.87;147.53;;;;;;;;;;5035706;28;20298;-53
2023/01/21 06:08:56;;;;;;;327.97;150.93;;;;;;;;;;5033217;28;20330;-53
2023/01/21 06:11:22;;;;;;;322.03;148.80;;;;;;;;;;5041207;28;20278;-53
2023/01/21 06:13:48;;;;;;;393.50;171.20;;;;;;;;;;5033237;28;20693;-54
2023/01/21 06:16:14;;;;;;;246.13;112.33;;;;;;;;;;5037405;28;20238;-54
2023/01/21 06:18:41;;;;;;;337.67;144.87;;;;;;;;;;5035785;28;20231;-53
2023/01/21 06:21:07;;;;;;;345.83;155.57;;;;;;;;;;5035030;28;20219;-53
2023/01/21 06:23:33;;;;;;;387.03;166.03;;;;;;;;;;5035498;28;20207;-54
2023/01/21 06:25:59;;;;;;;313.90;139.97;;;;;;;;;;5040475;28;20248;-53
2023/01/21 06:28:26;;;;;;;298.80;136.10;;;;;;;;;;5042308;28;20203;-54
2023/01/21 06:30:52;;;;;;;270.57;127.90;;;;;;;;;;5039513;28;20484;-54
2023/01/21 06:33:18;;;;;;;269.03;124.37;;;;;;;;;;5038902;28;21096;-53
2023/01/21 06:35:45;;;;;;;330.83;146.80;;;;;;;;;;5042166;28;20206;-54
2023/01/21 06:38:11;;;;;;;351.27;158.97;;;;;;;;;;5033422;28;20236;-53
2023/01/21 06:40:37;;;;;;;335.33;144.50;;;;;;;;;;5041847;28;20216;-54
2023/01/21 06:43:03;;;;;;;341.43;149.50;;;;;;;;;;5036798;28;21732;-54
2023/01/21 06:45:29;;;;;;;297.37;134.70;;;;;;;;;;5032459;28;20302;-54
2023/01/21 06:47:55;;;;;;;361.87;161.40;;;;;;;;;;5034901;28;20215;-56
2023/01/21 06:50:21;;;;;;;317.13;142.87;;;;;;;;;;5041624;28;20187;-54
2023/01/21 06:52:47;;;;;;;328.17;142.00;;;;;;;;;;5038038;28;20632;-53
2023/01/21 06:55:14;;;;;;;319.30;133.40;;;;;;;;;;5026257;28;20227;-50
2023/01/21 06:57:40;;;;;;;306.13;131.17;;;;;;;;;;5026190;28;20228;-50
2023/01/21 07:00:07;;;;;;;296.40;132.13;;;;;;;;;;5025990;28;20234;-51
2023/01/21 07:02:33;;;;;;;336.53;146.33;;;;;;;;;;5025011;28;20310;-50
2023/01/21 07:04:59;;;;;;;309.57;133.03;;;;;;;;;;5025778;28;20243;-48
2023/01/21 07:07:26;;;;;;;253.97;114.53;;;;;;;;;;5025652;28;20216;-49
2023/01/21 07:09:52;;;;;;;307.63;139.60;;;;;;;;;;5025117;28;20262;-50
2023/01/21 07:12:18;;;;;;;346.30;160.33;;;;;;;;;;5027907;28;20242;-49
2023/01/21 07:14:44;;;;;;;339.13;142.73;;;;;;;;;;5043706;28;20222;-49
2023/01/21 07:17:10;;;;;;;298.07;130.53;;;;;;;;;;5045220;28;20225;-49
2023/01/21 07:19:36;;;;;;;318.07;138.40;;;;;;;;;;5045585;28;20421;-49
2023/01/21 07:22:02;;;;;;;273.00;124.97;;;;;;;;;;5044824;28;20719;-50
2023/01/21 07:24:28;;;;;;;276.87;121.53;;;;;;;;;;5045135;28;20274;-49
2023/01/21 07:26:55;;;;;;;235.97;113.43;;;;;;;;;;5045121;28;20216;-49
2023/01/21 07:29:22;;;;;;;287.20;123.83;;;;;;;;;;5043214;28;20658;-48
2023/01/21 07:31:48;;;;;;;341.70;149.33;;;;;;;;;;5044424;28;20211;-50
2023/01/21 07:34:14;;;;;;;269.60;124.33;;;;;;;;;;5043454;28;20666;-50
2023/01/21 07:36:40;;;;;;;332.63;153.77;;;;;;;;;;5044268;28;20264;-50
2023/01/21 07:39:07;;;;;;;292.33;128.57;;;;;;;;;;5043381;28;20219;-50
2023/01/21 07:41:33;;;;;;;359.70;154.87;;;;;;;;;;5042146;28;20243;-49
2023/01/21 07:43:59;;;;;;;359.33;148.87;;;;;;;;;;5044671;28;20198;-50
2023/01/21 07:46:25;;;;;;;299.00;131.57;;;;;;;;;;5044270;28;20211;-49
2023/01/21 07:48:52;;;;;;;292.40;130.37;;;;;;;;;;5045019;28;20265;-49
2023/01/21 07:51:18;;;;;;;294.63;132.07;;;;;;;;;;5044181;28;20634;-49
2023/01/21 07:53:44;;;;;;;373.20;159.03;;;;;;;;;;5043956;28;20207;-50
2023/01/21 07:56:10;;;;;;;284.10;125.63;;;;;;;;;;5042784;28;20208;-49
2023/01/21 07:58:37;;;;;;;318.20;138.57;;;;;;;;;;5044247;28;20238;-49
2023/01/21 08:01:07;;;;;;;312.27;133.33;;;;;;;;;;5042734;28;20342;-50
2023/01/21 08:03:33;;;;;;;277.27;125.47;;;;;;;;;;5044302;28;20243;-49
2023/01/21 08:06:00;;;;;;;261.37;123.70;;;;;;;;;;5043432;28;20207;-50
2023/01/21 08:08:26;;;;;;;323.70;142.70;;;;;;;;;;5042982;28;20294;-49
2023/01/21 08:10:53;;;;;;;313.67;132.00;;;;;;;;;;5043991;28;20446;-50
2023/01/21 08:13:19;;;;;;;297.63;130.00;;;;;;;;;;5043667;28;20298;-49
2023/01/21 08:15:49;;;;;;;351.27;146.53;;;;;;;;;;5043226;28;20646;-50
2023/01/21 08:18:15;;;;;;;262.00;118.83;;;;;;;;;;5043565;28;20250;-49
2023/01/21 08:20:42;;;;;;;290.57;126.33;;;;;;;;;;5043779;28;20168;-48
2023/01/21 08:23:08;;;;;;;284.40;123.00;;;;;;;;;;5044093;28;20656;-50
2023/01/21 08:25:33;;;;;;;288.33;131.13;;;;;;;;;;5042709;28;20302;-49
2023/01/21 08:28:00;;;;;;;330.00;140.30;;;;;;;;;;5043539;28;20250;-49
2023/01/21 08:30:26;;;;;;;323.03;139.10;;;;;;;;;;5042913;28;20219;-50
2023/01/21 08:32:52;;;;;;;329.43;136.47;;;;;;;;;;5043772;28;20215;-49
2023/01/21 08:35:18;;;;;;;290.20;123.90;;;;;;;;;;5044364;28;20702;-50
2023/01/21 08:37:44;;;;;;;349.47;140.57;;;;;;;;;;5040394;28;20724;-49
2023/01/21 08:40:10;;;;;;;327.03;151.93;;;;;;;;;;5026037;28;20675;-49
2023/01/21 08:42:36;;;;;;;360.53;146.83;;;;;;;;;;5036317;28;20215;-49
2023/01/21 08:45:03;;;;;;;291.70;118.47;;;;;;;;;;5041250;28;20219;-49
2023/01/21 08:47:29;;;;;;;367.57;152.83;;;;;;;;;;5038685;28;20183;-49
2023/01/21 08:49:55;;;;;;;384.40;152.40;;;;;;;;;;5036812;28;20590;-49
2023/01/21 08:52:21;;;;;;;404.77;160.80;;;;;;;;;;5020067;28;20265;-48
2023/01/21 08:54:47;;;;;;;391.87;164.10;;;;;;;;;;5033121;28;20710;-49
2023/01/21 08:57:13;;;;;;;336.60;138.33;;;;;;;;;;5036572;28;20222;-49
2023/01/21 08:59:39;;;;;;;344.13;150.33;;;;;;;;;;5048153;28;20176;-50
2023/01/21 09:02:05;;;;;;;309.17;122.17;;;;;;;;;;5038874;28;20218;-49
2023/01/21 09:04:31;;;;;;;390.37;161.70;;;;;;;;;;5041225;28;20294;-49
2023/01/21 09:06:57;;;;;;;352.53;144.57;;;;;;;;;;5035703;28;20215;-48
2023/01/21 09:09:24;;;;;;;297.63;125.70;;;;;;;;;;5032365;28;20219;-49
2023/01/21 09:11:51;;;;;;;297.57;125.87;;;;;;;;;;5022710;28;20295;-49
2023/01/21 09:14:17;;;;;;;333.20;133.37;;;;;;;;;;5028286;28;20227;-50
2023/01/21 09:16:43;;;;;;;327.83;146.00;;;;;;;;;;5042498;28;20215;-50
2023/01/21 09:19:09;;;;;;;333.77;139.33;;;;;;;;;;5042345;28;20302;-50
2023/01/21 09:21:36;;;;;;;278.33;123.60;;;;;;;;;;5043072;28;20278;-49
2023/01/21 09:24:02;;;;;;;324.23;134.97;;;;;;;;;;5042219;28;20242;-50
2023/01/21 09:26:28;;;;;;;342.83;138.43;;;;;;;;;;5042214;28;20178;-50
2023/01/21 09:28:57;;;;;;;305.50;129.87;;;;;;;;;;5042840;28;20854;-50
2023/01/21 09:31:25;;;;;;;349.30;145.53;;;;;;;;;;5042168;28;20345;-49
2023/01/21 09:33:52;;;;;;;346.30;144.33;;;;;;;;;;5042131;28;20728;-51
2023/01/21 09:36:19;;;;;;;285.17;119.37;;;;;;;;;;5042813;28;20725;-49
2023/01/21 09:38:46;;;;;;;316.47;140.17;;;;;;;;;;5042544;28;20570;-48
2023/01/21 09:41:29;;;;;;;287.50;132.67;;;;;;;;;;5043207;28;20298;-51
2023/01/21 09:43:58;;;;;;;297.30;131.07;;;;;;;;;;5040888;28;20204;-51
2023/01/21 09:46:34;;;;;;;287.93;134.80;;;;;;;;;;5041216;28;20215;-51
2023/01/21 09:49:01;;;;;;;284.23;128.70;;;;;;;;;;5042981;28;20318;-51
2023/01/21 09:51:32;;;;;;;302.50;136.17;;;;;;;;;;5042828;28;20218;-50
2023/01/21 09:53:58;;;;;;;339.23;146.50;;;;;;;;;;5041275;28;20706;-50
2023/01/21 09:56:30;;;;;;;306.07;134.87;;;;;;;;;;5042472;28;20190;-50
2023/01/21 09:59:19;;;;;;;282.83;126.20;;;;;;;;;;5042226;28;20286;-51
2023/01/21 10:01:46;;;;;;;289.80;131.00;;;;;;;;;;5042438;28;20215;-51
2023/01/21 10:04:18;;;;;;;303.17;129.03;;;;;;;;;;5041638;28;20219;-51
2023/01/21 10:06:57;;;;;;;328.10;150.87;;;;;;;;;;5042475;28;20215;-50
2023/01/21 10:09:33;;;;;;;334.10;138.10;;;;;;;;;;5040429;28;20211;-49
2023/01/21 10:12:44;;;;;;;307.17;137.13;;;;;;;;;;5042570;28;20218;-50
2023/01/21 10:15:24;;;;;;;334.60;142.40;;;;;;;;;;5042111;28;20701;-50
2023/01/21 10:17:50;;;;;;;268.93;126.23;;;;;;;;;;5022681;28;20215;-49
2023/01/21 10:20:16;;;;;;;276.90;123.77;;;;;;;;;;5022626;28;20171;-50
2023/01/21 10:22:46;;;;;;;300.43;138.73;;;;;;;;;;5022655;28;20227;-49
2023/01/21 10:25:19;;;;;;;119.37;74.67;;;;;;;;;;5023612;28;20555;-49
2023/01/21 10:27:45;;;;;;;94.77;64.90;;;;;;;;;;5026682;28;20218;-49
2023/01/21 10:30:20;;;;;;;92.10;65.77;;;;;;;;;;5026400;28;20299;-49
2023/01/21 10:32:49;;;;;;;104.37;69.07;;;;;;;;;;5027291;28;20218;-50
2023/01/21 10:35:19;;;;;;;111.40;73.47;;;;;;;;;;5027228;28;20683;-49
2023/01/21 10:37:51;;;;;;;104.13;69.47;;;;;;;;;;5026425;28;20216;-49
2023/01/21 10:40:41;;;;;;;111.20;72.57;;;;;;;;;;5025972;28;20699;-49
2023/01/21 10:43:12;;;;;;;115.00;74.07;;;;;;;;;;5026330;28;20294;-49
2023/01/21 10:46:04;;;;;;;97.70;67.80;;;;;;;;;;5026427;28;20204;-49
2023/01/21 10:48:46;;;;;;;116.73;75.97;;;;;;;;;;5023398;28;20220;-50
2023/01/21 10:51:26;;;;;;;98.97;67.93;;;;;;;;;;5026601;28;20307;-49
2023/01/21 10:53:55;;;;;;;101.93;69.50;;;;;;;;;;5025883;28;20773;-48
2023/01/21 10:56:21;;;;;;;102.23;69.10;;;;;;;;;;5026778;28;20200;-49
2023/01/21 10:58:49;;;;;;;87.07;63.20;;;;;;;;;;5026340;28;20227;-49
2023/01/21 11:01:18;;;;;;;106.97;70.97;;;;;;;;;;5026273;28;20226;-50
2023/01/21 11:03:46;;;;;;;118.23;75.87;;;;;;;;;;5026098;28;20274;-50
2023/01/21 11:06:14;;;;;;;111.27;72.63;;;;;;;;;;5026462;28;20296;-50
2023/01/21 11:08:43;;;;;;;121.33;76.87;;;;;;;;;;5029476;28;20669;-49
2023/01/21 11:11:09;;;;;;;118.47;76.03;;;;;;;;;;5030044;28;20293;-49
2023/01/21 11:13:35;;;;;;;114.67;74.13;;;;;;;;;;5029396;28;20319;-49
2023/01/21 11:16:03;;;;;;;106.27;70.07;;;;;;;;;;5029554;28;20307;-49
2023/01/21 11:18:34;;;;;;;116.37;74.23;;;;;;;;;;5029576;28;20289;-50
2023/01/21 11:21:02;;;;;;;112.77;73.80;;;;;;;;;;5029217;28;20220;-50
2023/01/21 11:23:29;;;;;;;121.57;76.87;;;;;;;;;;5029595;28;20276;-49
2023/01/21 11:26:03;;;;;;;113.97;73.23;;;;;;;;;;5029600;28;20227;-49
2023/01/21 11:28:29;;;;;;;109.07;71.53;;;;;;;;;;5029045;28;20655;-50
2023/01/21 11:31:07;;;;;;;123.13;77.20;;;;;;;;;;5029096;28;20295;-49
2023/01/21 11:33:34;;;;;;;112.53;73.17;;;;;;;;;;5029336;28;20223;-50
2023/01/21 11:36:09;;;;;;;122.37;76.40;;;;;;;;;;5029228;28;20223;-48
2023/01/21 11:38:35;;;;;;;130.13;82.17;;;;;;;;;;5029188;28;20180;-49
2023/01/21 11:41:06;;;;;;;123.70;77.63;;;;;;;;;;5029516;28;20165;-49
2023/01/21 11:43:34;;;;;;;113.87;74.33;;;;;;;;;;5029337;28;20594;-49
2023/01/21 11:46:00;;;;;;;113.07;73.67;;;;;;;;;;5028820;28;20227;-50
2023/01/21 11:48:26;;;;;;;131.67;80.40;;;;;;;;;;5029240;28;20212;-50
2023/01/21 11:51:05;;;;;;;132.00;81.17;;;;;;;;;;5029009;28;20222;-50
2023/01/21 11:53:31;;;;;;;322.87;138.93;;;;;;;;;;5025241;28;20571;-49
2023/01/21 11:56:11;;;;;;;360.27;152.60;;;;;;;;;;5023921;28;20180;-50
2023/01/21 11:58:39;;;;;;;393.70;168.57;;;;;;;;;;5024502;28;20574;-50
2023/01/21 12:01:07;;;;;;;348.17;148.93;;;;;;;;;;5024852;28;20239;-50
2023/01/21 12:03:40;;;;;;;345.53;146.67;;;;;;;;;;5024796;28;20619;-50
2023/01/21 12:06:07;;;;;;;366.17;161.30;;;;;;;;;;5024824;28;20242;-50
2023/01/21 12:08:34;;;;;;;322.10;150.30;;;;;;;;;;5024186;28;20177;-50
2023/01/21 12:11:01;;;;;;;353.57;168.97;;;;;;;;;;5022252;28;20215;-50
2023/01/21 12:13:27;;;;;;;324.87;153.33;;;;;;;;;;5041185;28;20314;-50
2023/01/21 12:16:14;;;;;;;296.63;147.90;;;;;;;;;;5044081;28;20303;-50
2023/01/21 12:19:02;;;;;;;308.20;147.77;;;;;;;;;;5043817;28;20539;-48
2023/01/21 12:21:47;;;;;;;329.83;149.63;;;;;;;;;;5043943;28;20230;-49
2023/01/21 12:24:19;;;;;;;336.43;150.17;;;;;;;;;;5038843;28;20223;-49
2023/01/21 12:26:48;;;;;;;329.60;148.03;;;;;;;;;;5022153;28;20274;-49
2023/01/21 12:29:30;;;;;;;339.30;156.07;;;;;;;;;;5042615;28;20606;-50
2023/01/21 12:32:00;;;;;;;372.73;163.70;;;;;;;;;;5042754;28;20195;-50
2023/01/21 12:34:34;;;;;;;322.03;145.77;;;;;;;;;;5043133;28;20733;-49
2023/01/21 12:37:00;;;;;;;313.03;144.57;;;;;;;;;;5043258;28;20230;-49
2023/01/21 12:39:33;;;;;;;313.83;144.13;;;;;;;;;;5042973;28;20223;-49
2023/01/21 12:42:06;;;;;;;373.27;163.50;;;;;;;;;;5043238;28;20258;-49
2023/01/21 12:44:36;;;;;;;315.57;147.20;;;;;;;;;;5041948;28;20310;-49
2023/01/21 12:47:14;;;;;;;354.37;158.30;;;;;;;;;;5042911;28;20172;-49
2023/01/21 12:49:59;;;;;;;369.10;168.63;;;;;;;;;;5042400;28;20227;-50
2023/01/21 12:52:28;;;;;;;134.27;83.90;;;;;;;;;;5045011;28;20215;-49
2023/01/21 12:55:01;;;;;;;122.10;78.63;;;;;;;;;;5049582;28;20219;-52
2023/01/21 12:57:33;;;;;;;117.80;76.87;;;;;;;;;;5067845;28;20238;-53
2023/01/21 13:00:02;;;;;;;124.97;78.40;;;;;;;;;;5056874;28;20211;-53
2023/01/21 13:02:32;;;;;;;163.00;96.30;;;;;;;;;;5053745;28;20207;-53
2023/01/21 13:05:01;;;;;;;125.47;78.23;;;;;;;;;;5048661;28;20495;-52
2023/01/21 13:07:30;;;;;;;155.87;90.87;;;;;;;;;;5052532;28;20250;-52
2023/01/21 13:10:01;;;;;;;155.23;92.53;;;;;;;;;;5052313;28;20204;-52
2023/01/21 13:12:29;;;;;;;149.33;88.93;;;;;;;;;;5053723;28;20211;-52
2023/01/21 13:14:55;;;;;;;134.70;81.40;;;;;;;;;;5047790;28;20385;-53
2023/01/21 13:17:23;;;;;;;133.13;83.50;;;;;;;;;;5049932;28;20188;-52
2023/01/21 13:19:49;;;;;;;139.03;83.30;;;;;;;;;;5053029;28;20745;-53
2023/01/21 13:22:20;;;;;;;189.53;106.60;;;;;;;;;;5048551;28;20227;-52
2023/01/21 13:24:55;;;;;;;165.43;95.60;;;;;;;;;;5039883;28;20226;-52
2023/01/21 13:27:28;;;;;;;119.87;76.83;;;;;;;;;;5049528;28;20222;-49
2023/01/21 13:29:54;;;;;;;125.30;79.33;;;;;;;;;;5046558;28;20219;-49
2023/01/21 13:32:28;;;;;;;113.40;74.17;;;;;;;;;;5048527;28;20708;-49
2023/01/21 13:35:14;;;;;;;120.00;76.87;;;;;;;;;;5048654;28;20629;-49
2023/01/21 13:37:40;;;;;;;107.93;70.03;;;;;;;;;;5046596;28;20622;-49
2023/01/21 13:40:06;;;;;;;121.13;75.67;;;;;;;;;;5046656;28;20558;-49
2023/01/21 13:42:37;;;;;;;117.00;74.87;;;;;;;;;;5046997;28;20272;-51
2023/01/21 13:45:27;;;;;;;117.87;74.43;;;;;;;;;;5046371;28;20227;-49
2023/01/21 13:48:09;;;;;;;116.37;75.43;;;;;;;;;;5047139;28;20281;-49
2023/01/21 13:50:47;;;;;;;304.47;144.00;;;;;;;;;;5045861;28;20164;-49
2023/01/21 13:53:13;;;;;;;375.00;156.47;;;;;;;;;;5041879;28;20225;-49
2023/01/21 13:55:57;;;;;;;348.73;155.27;;;;;;;;;;5041377;28;20869;-49
2023/01/21 13:58:38;;;;;;;288.37;129.50;;;;;;;;;;5042487;28;20221;-50
2023/01/21 14:01:33;;;;;;;311.00;142.70;;;;;;;;;;5041556;28;20222;-49
2023/01/21 14:04:05;;;;;;;337.43;150.03;;;;;;;;;;5019377;28;20239;-50
2023/01/21 14:07:09;;;;;;;310.73;143.73;;;;;;;;;;5040225;28;20237;-49